Time;durP1;ratioP1;P1;durP2;ratioP2;P2;SDS_P1;SDS_P2;PMS_P1;PMS_P2;Temp;Humidity;BMP_temperature;BMP_pressure;BME280_temperature;BME280_humidity;BME280_pressure;Samples;Min_cycle;Max_cycle;Signal;HPM_P1;HPM_P2
2022/12/09 00:02:17;;;;;;;20.37;9.55;;;2.10;68.10;;;;;;2338168;54;21075;-72
2022/12/09 00:04:44;;;;;;;23.65;10.27;;;2.00;68.00;;;;;;2582630;53;21438;-72
2022/12/09 00:07:11;;;;;;;18.05;9.25;;;2.00;68.00;;;;;;2582784;53;21434;-71
2022/12/09 00:09:37;;;;;;;19.50;9.35;;;2.00;68.00;;;;;;2390166;53;20975;-73
2022/12/09 00:12:04;;;;;;;18.95;9.05;;;2.00;68.00;;;;;;2337289;53;21294;-71
2022/12/09 00:14:33;;;;;;;20.77;9.07;;;2.00;68.00;;;;;;2583435;53;21211;-71
2022/12/09 00:16:59;;;;;;;18.40;9.18;;;2.00;68.00;;;;;;2337338;54;20931;-72
2022/12/09 00:19:53;;;;;;;14.85;7.68;;;2.00;68.10;;;;;;2337901;54;21270;-73
2022/12/09 00:22:19;;;;;;;19.73;9.30;;;2.00;67.90;;;;;;2337332;54;21396;-73
2022/12/09 00:24:46;;;;;;;15.45;7.60;;;1.90;67.90;;;;;;2582649;53;20900;-71
2022/12/09 00:27:13;;;;;;;16.17;8.18;;;1.90;68.60;;;;;;2356957;53;20919;-72
2022/12/09 00:29:39;;;;;;;18.23;7.97;;;1.90;68.00;;;;;;2583471;53;20916;-72
2022/12/09 00:32:05;;;;;;;15.80;7.68;;;1.90;67.90;;;;;;2400880;53;21290;-72
2022/12/09 00:34:32;;;;;;;18.60;8.48;;;1.90;67.90;;;;;;2427306;53;21809;-71
2022/12/09 00:36:58;;;;;;;15.07;7.35;;;1.90;67.90;;;;;;2337227;54;20954;-71
2022/12/09 00:39:26;;;;;;;14.98;6.50;;;1.90;67.90;;;;;;2388373;53;20927;-73
2022/12/09 00:42:01;;;;;;;15.55;7.40;;;1.90;67.90;;;;;;2336961;54;21840;-72
2022/12/09 00:44:28;;;;;;;13.70;6.65;;;1.80;67.70;;;;;;2583536;53;20975;-73
2022/12/09 00:46:54;;;;;;;17.02;6.28;;;1.80;67.80;;;;;;2582924;53;20915;-71
2022/12/09 00:49:21;;;;;;;11.43;5.82;;;1.80;67.80;;;;;;2583334;53;20951;-73
2022/12/09 00:51:47;;;;;;;15.65;7.37;;;1.80;67.80;;;;;;2426514;53;20942;-73
2022/12/09 00:54:14;;;;;;;11.07;5.57;;;1.80;67.70;;;;;;2583829;53;20955;-70
2022/12/09 00:56:40;;;;;;;15.15;7.12;;;1.80;67.70;;;;;;2338822;53;20911;-72
2022/12/09 00:59:07;;;;;;;14.80;7.40;;;1.70;67.60;;;;;;2369097;53;21003;-70
2022/12/09 01:01:34;;;;;;;18.15;9.10;;;1.70;67.60;;;;;;2337925;54;20998;-73
2022/12/09 01:04:01;;;;;;;13.57;7.20;;;1.70;67.60;;;;;;2336251;54;20903;-71
2022/12/09 01:06:27;;;;;;;15.32;7.12;;;1.70;67.70;;;;;;2435270;53;20951;-72
2022/12/09 01:08:54;;;;;;;11.30;5.80;;;1.70;67.70;;;;;;2337800;54;21840;-73
2022/12/09 01:11:25;;;;;;;14.27;6.50;;;1.60;67.70;;;;;;2336832;54;20903;-71
2022/12/09 01:13:51;;;;;;;13.25;5.93;;;1.60;67.70;;;;;;2582722;53;21442;-72
2022/12/09 01:16:23;;;;;;;14.00;6.85;;;1.60;67.70;;;;;;2337604;54;21009;-73
2022/12/09 01:18:50;;;;;;;15.38;7.05;;;1.60;67.70;;;;;;2462208;53;22104;-73
2022/12/09 01:21:16;;;;;;;12.70;6.35;;;1.50;67.60;;;;;;2337251;54;21397;-72
2022/12/09 01:24:17;;;;;;;13.62;7.03;;;1.60;67.80;;;;;;2338020;54;20936;-72
2022/12/09 01:26:43;;;;;;;16.62;7.10;;;1.50;67.50;;;;;;2337248;54;20923;-72
2022/12/09 01:29:10;;;;;;;15.15;7.37;;;1.60;67.70;;;;;;2465878;53;21760;-73
2022/12/09 01:31:36;;;;;;;14.18;6.80;;;1.50;67.70;;;;;;2336569;54;21384;-73
2022/12/09 01:34:05;;;;;;;11.90;5.60;;;1.50;67.70;;;;;;2336454;54;20931;-73
2022/12/09 01:36:32;;;;;;;11.43;5.75;;;1.50;67.70;;;;;;2332307;54;21417;-71
2022/12/09 01:38:58;;;;;;;11.40;6.00;;;1.50;67.70;;;;;;2337215;54;21717;-73
2022/12/09 01:41:25;;;;;;;13.57;6.55;;;1.50;67.60;;;;;;2582719;53;21327;-72
2022/12/09 01:50:41;;;;;;;15.90;7.90;;;1.50;67.60;;;;;;2337349;54;21007;-73
2022/12/09 01:53:29;;;;;;;12.25;5.78;;;1.40;66.80;;;;;;2337283;54;20967;-72
2022/12/09 01:55:57;;;;;;;12.65;6.22;;;1.40;67.30;;;;;;2337549;54;20907;-73
2022/12/09 01:58:23;;;;;;;13.55;6.45;;;1.30;67.40;;;;;;2338022;54;20979;-71
2022/12/09 02:00:50;;;;;;;14.10;6.43;;;1.30;67.60;;;;;;2337117;54;20990;-73
2022/12/09 02:03:28;;;;;;;11.75;6.28;;;1.30;67.80;;;;;;2337504;54;21008;-73
2022/12/09 02:05:55;;;;;;;15.02;6.75;;;1.30;67.80;;;;;;2337705;54;20911;-73
2022/12/09 02:08:21;;;;;;;11.85;5.93;;;1.30;67.90;;;;;;2366992;54;21857;-72
2022/12/09 02:13:27;;;;;;;14.23;6.65;;;1.30;67.90;;;;;;2340548;54;20962;-72
2022/12/09 02:15:56;;;;;;;13.62;6.07;;;1.30;67.10;;;;;;2421947;53;20911;-73
2022/12/09 02:18:39;;;;;;;15.30;7.35;;;1.30;67.60;;;;;;2338409;54;20919;-72
2022/12/09 02:21:15;;;;;;;17.45;7.53;;;1.30;67.60;;;;;;2337466;54;20971;-73
2022/12/09 02:23:52;;;;;;;17.20;8.40;;;1.20;67.60;;;;;;2337848;54;20978;-73
2022/12/09 02:26:39;;;;;;;13.65;6.75;;;1.20;67.70;;;;;;2583717;53;21887;-72
2022/12/09 02:29:30;;;;;;;17.70;7.85;;;1.20;67.80;;;;;;2342933;53;21495;-72
2022/12/09 02:32:20;;;;;;;14.98;6.43;;;1.20;67.70;;;;;;2588397;52;20944;-72
2022/12/09 02:34:56;;;;;;;15.80;7.20;;;1.20;67.70;;;;;;2338045;53;20919;-72
2022/12/09 02:37:41;;;;;;;17.45;7.82;;;1.20;67.80;;;;;;2338436;54;20931;-72
2022/12/09 02:40:45;;;;;;;16.37;7.60;;;1.10;67.90;;;;;;2437467;53;20927;-73
2022/12/09 02:43:11;;;;;;;17.98;7.85;;;1.20;68.10;;;;;;2338760;54;20983;-73
2022/12/09 02:45:38;;;;;;;15.48;8.25;;;1.20;68.20;;;;;;2338109;54;21030;-72
2022/12/09 02:48:06;;;;;;;21.30;7.70;;;1.10;68.40;;;;;;2582640;53;20887;-73
2022/12/09 02:50:34;;;;;;;16.90;7.80;;;1.10;68.50;;;;;;2337546;54;21299;-73
2022/12/09 02:53:01;;;;;;;14.45;6.60;;;1.20;68.70;;;;;;2583018;53;20916;-72
2022/12/09 02:55:27;;;;;;;19.58;8.50;;;1.20;68.70;;;;;;2338275;54;20924;-72
2022/12/09 02:57:56;;;;;;;18.75;9.00;;;1.20;68.70;;;;;;2337248;54;20955;-72
2022/12/09 03:00:23;;;;;;;18.58;8.38;;;1.20;68.70;;;;;;2337823;53;21028;-72
2022/12/09 03:03:00;;;;;;;14.32;7.20;;;1.20;68.70;;;;;;2401028;53;20903;-73
2022/12/09 03:06:19;;;;;;;15.23;7.72;;;1.20;68.80;;;;;;2583332;53;20907;-73
2022/12/09 03:09:20;;;;;;;17.30;6.97;;;1.20;68.70;;;;;;2560757;53;21030;-72
2022/12/09 03:11:46;;;;;;;14.48;7.45;;;1.30;68.70;;;;;;2356145;53;20943;-72
2022/12/09 03:14:18;;;;;;;15.05;7.57;;;1.30;68.90;;;;;;2583096;53;20907;-73
2022/12/09 03:17:31;;;;;;;;;;;1.30;69.00;;;;;;2341505;54;20915;-73
2022/12/09 03:20:03;;;;;;;13.32;6.32;;;1.30;68.40;;;;;;2582100;53;20067;-72
2022/12/09 03:22:30;;;;;;;9.73;4.97;;;1.40;68.90;;;;;;2338716;54;21015;-73
2022/12/09 03:25:13;;;;;;;13.95;6.97;;;1.30;68.90;;;;;;2348138;53;20931;-73
2022/12/09 03:27:51;;;;;;;16.12;7.28;;;1.40;69.00;;;;;;2338051;54;20946;-72
2022/12/09 03:30:49;;;;;;;10.00;5.43;;;1.40;68.90;;;;;;2560691;53;21425;-73
2022/12/09 03:33:17;;;;;;;14.90;7.37;;;1.40;68.70;;;;;;2337849;54;20947;-73
2022/12/09 03:35:54;;;;;;;12.52;5.85;;;1.40;68.70;;;;;;2583339;53;21004;-73
2022/12/09 03:38:23;;;;;;;10.20;5.82;;;1.40;68.70;;;;;;2583132;53;21003;-72
2022/12/09 03:40:57;;;;;;;9.48;4.75;;;1.40;68.70;;;;;;2582837;53;21371;-72
2022/12/09 03:43:26;;;;;;;11.40;5.82;;;1.40;68.60;;;;;;2338201;54;21578;-73
2022/12/09 03:45:53;;;;;;;9.10;5.05;;;1.40;68.50;;;;;;2447522;53;21445;-73
2022/12/09 03:48:34;;;;;;;13.95;6.93;;;1.40;68.40;;;;;;2511526;53;21468;-73
2022/12/09 03:51:07;;;;;;;11.15;5.53;;;1.40;68.20;;;;;;2583715;53;20961;-73
2022/12/09 03:53:47;;;;;;;;;;;1.40;68.30;;;;;;2564275;53;20927;-73
2022/12/09 03:56:23;;;;;;;12.30;6.20;;;1.40;67.80;;;;;;2337272;54;20138;-72
2022/12/09 03:58:51;;;;;;;13.13;5.97;;;1.40;68.20;;;;;;2337396;54;21322;-73
2022/12/09 04:01:18;;;;;;;9.95;5.00;;;1.40;69.10;;;;;;2338147;54;20919;-72
2022/12/09 04:03:47;;;;;;;9.82;5.00;;;1.40;68.50;;;;;;2337861;54;20919;-73
2022/12/09 04:06:13;;;;;;;10.82;5.12;;;1.40;68.50;;;;;;2338290;54;21411;-73
2022/12/09 04:08:40;;;;;;;11.88;6.20;;;1.40;68.50;;;;;;2337797;54;20899;-73
2022/12/09 04:11:07;;;;;;;11.32;6.10;;;1.40;68.50;;;;;;2336331;54;20899;-73
2022/12/09 04:13:34;;;;;;;11.55;5.47;;;1.40;68.50;;;;;;2338298;54;20935;-72
2022/12/09 04:16:00;;;;;;;11.18;5.57;;;1.40;68.50;;;;;;2337205;54;21044;-73
2022/12/09 04:18:27;;;;;;;10.52;5.25;;;1.40;68.50;;;;;;2338008;54;20934;-73
2022/12/09 04:20:53;;;;;;;7.70;4.55;;;1.40;68.50;;;;;;2341524;54;20971;-73
2022/12/09 04:23:20;;;;;;;9.52;5.35;;;1.50;68.50;;;;;;2448454;52;21002;-73
2022/12/09 04:25:49;;;;;;;11.15;5.72;;;1.50;68.50;;;;;;2332586;53;20959;-70
2022/12/09 04:28:34;;;;;;;11.98;6.10;;;1.50;68.30;;;;;;2339066;53;20936;-73
2022/12/09 04:31:01;;;;;;;10.80;6.20;;;1.50;68.00;;;;;;2371843;53;20904;-73
2022/12/09 04:33:43;;;;;;;10.90;5.87;;;1.40;68.00;;;;;;2327788;54;20974;-73
2022/12/09 04:36:13;;;;;;;13.52;7.18;;;1.40;67.90;;;;;;2328618;54;20970;-73
2022/12/09 04:38:40;;;;;;;15.80;7.72;;;1.40;68.10;;;;;;2337588;53;21961;-73
2022/12/09 04:41:40;;;;;;;13.75;7.47;;;1.40;68.20;;;;;;2327799;54;21002;-72
2022/12/09 04:44:07;;;;;;;12.27;6.65;;;1.50;68.40;;;;;;2327812;54;21121;-73
2022/12/09 04:46:33;;;;;;;16.87;7.18;;;1.40;68.50;;;;;;2328075;54;20950;-73
2022/12/09 04:49:02;;;;;;;11.68;6.43;;;1.50;68.60;;;;;;2543307;53;21919;-72
2022/12/09 04:51:31;;;;;;;15.38;7.43;;;1.50;68.80;;;;;;2478213;53;21090;-73
2022/12/09 04:54:04;;;;;;;10.05;5.50;;;1.50;68.80;;;;;;2327437;54;20997;-72
2022/12/09 04:56:31;;;;;;;10.27;5.97;;;1.50;68.80;;;;;;2328082;54;21005;-72
2022/12/09 04:58:58;;;;;;;11.27;6.55;;;1.50;68.70;;;;;;2327635;54;21567;-73
2022/12/09 05:01:26;;;;;;;16.90;7.97;;;1.50;68.60;;;;;;2328033;54;21058;-73
2022/12/09 05:03:56;;;;;;;12.52;7.07;;;1.50;68.60;;;;;;2327958;54;21235;-72
2022/12/09 05:06:22;;;;;;;11.55;6.45;;;1.50;68.60;;;;;;2328350;54;21010;-73
2022/12/09 05:08:49;;;;;;;13.90;7.37;;;1.60;68.80;;;;;;2327534;54;21888;-72
2022/12/09 05:11:16;;;;;;;11.18;6.35;;;1.60;68.80;;;;;;2327821;54;22049;-72
2022/12/09 05:13:43;;;;;;;12.60;7.15;;;1.60;68.90;;;;;;2328221;54;20918;-73
2022/12/09 05:16:37;;;;;;;12.55;5.80;;;1.60;68.90;;;;;;2572901;53;22032;-73
2022/12/09 05:19:04;;;;;;;13.52;6.75;;;1.60;68.70;;;;;;2327563;54;20899;-72
2022/12/09 05:21:31;;;;;;;11.65;5.70;;;1.60;68.70;;;;;;2328119;54;20958;-73
2022/12/09 05:23:58;;;;;;;13.40;7.05;;;1.60;68.70;;;;;;2326777;54;20955;-73
2022/12/09 05:26:24;;;;;;;12.63;6.20;;;1.60;68.70;;;;;;2328230;54;21050;-73
2022/12/09 05:28:52;;;;;;;11.70;6.00;;;1.70;68.80;;;;;;2571945;53;21968;-73
2022/12/09 05:31:21;;;;;;;11.48;5.70;;;1.70;68.80;;;;;;2328175;54;21035;-73
2022/12/09 05:34:21;;;;;;;11.18;5.68;;;1.70;68.80;;;;;;2328119;54;20945;-72
2022/12/09 05:36:47;;;;;;;10.07;4.90;;;1.70;68.60;;;;;;2327457;54;20915;-73
2022/12/09 05:39:14;;;;;;;9.55;5.10;;;1.70;68.70;;;;;;2327087;54;21036;-73
2022/12/09 05:41:42;;;;;;;9.50;5.15;;;1.70;68.60;;;;;;2327801;54;21063;-72
2022/12/09 05:44:11;;;;;;;9.52;4.97;;;1.70;68.60;;;;;;2327485;54;20922;-73
2022/12/09 05:46:38;;;;;;;9.13;4.28;;;1.70;68.60;;;;;;2327114;54;20915;-73
2022/12/09 05:49:04;;;;;;;9.88;4.75;;;1.70;68.60;;;;;;2327093;54;20949;-73
2022/12/09 05:54:59;;;;;;;9.82;4.37;;;1.70;68.40;;;;;;2571092;53;20935;-71
2022/12/09 05:57:25;;;;;;;9.27;4.80;;;1.70;68.50;;;;;;2327747;54;20915;-72
2022/12/09 05:59:52;;;;;;;12.30;5.55;;;1.70;68.60;;;;;;2327677;54;21448;-73
2022/12/09 06:02:52;;;;;;;14.73;7.03;;;1.70;68.70;;;;;;2326561;54;20927;-73
2022/12/09 06:05:19;;;;;;;13.45;6.85;;;1.70;68.70;;;;;;2327998;54;20955;-72
2022/12/09 06:07:45;;;;;;;10.82;6.25;;;1.80;68.90;;;;;;2328294;54;20928;-73
2022/12/09 06:10:12;;;;;;;13.30;6.60;;;1.80;69.10;;;;;;2337980;53;20990;-73
2022/12/09 06:12:38;;;;;;;9.80;5.15;;;1.80;69.10;;;;;;2355298;53;21710;-70
2022/12/09 06:15:07;;;;;;;11.70;6.37;;;1.80;69.20;;;;;;2328434;54;21888;-73
2022/12/09 06:17:36;;;;;;;9.80;5.43;;;1.80;69.10;;;;;;2327430;54;20919;-73
2022/12/09 06:20:03;;;;;;;11.25;5.75;;;1.80;69.10;;;;;;2571923;53;20974;-74
2022/12/09 06:22:56;;;;;;;9.20;5.20;;;1.90;69.20;;;;;;2335792;54;20976;-73
2022/12/09 06:25:23;;;;;;;10.38;4.78;;;1.90;68.90;;;;;;2408575;52;20938;-74
2022/12/09 06:27:52;;;;;;;11.88;5.78;;;1.90;69.00;;;;;;2328024;54;20991;-73
2022/12/09 06:30:20;;;;;;;9.35;4.82;;;1.90;69.00;;;;;;2330019;53;20942;-73
2022/12/09 06:32:46;;;;;;;10.05;5.07;;;2.00;69.10;;;;;;2365549;53;20923;-72
2022/12/09 06:35:13;;;;;;;11.43;5.65;;;2.00;69.00;;;;;;2328159;54;20911;-71
2022/12/09 06:37:55;;;;;;;10.45;5.35;;;2.00;69.00;;;;;;2328525;54;20967;-73
2022/12/09 06:40:22;;;;;;;10.80;5.68;;;2.00;68.80;;;;;;2327543;54;20961;-70
2022/12/09 06:42:49;;;;;;;11.27;5.55;;;2.00;68.90;;;;;;2332029;54;20968;-73
2022/12/09 06:45:19;;;;;;;9.68;5.25;;;2.00;68.90;;;;;;2329413;53;20927;-72
2022/12/09 06:47:45;;;;;;;11.00;5.12;;;2.00;68.90;;;;;;2327994;54;20927;-73
2022/12/09 06:50:13;;;;;;;11.73;5.43;;;2.00;68.90;;;;;;2332969;53;20932;-71
2022/12/09 06:52:39;;;;;;;9.55;5.35;;;2.00;68.90;;;;;;2329995;53;21006;-73
2022/12/09 06:55:06;;;;;;;12.10;6.32;;;2.10;69.00;;;;;;2340164;53;21681;-72
2022/12/09 06:57:33;;;;;;;11.95;5.82;;;2.00;68.90;;;;;;2336676;54;21131;-71
2022/12/09 07:00:03;;;;;;;9.07;4.93;;;2.10;69.10;;;;;;2311883;54;20944;-72
2022/12/09 07:02:29;;;;;;;10.23;5.45;;;2.10;69.10;;;;;;2328542;54;20963;-73
2022/12/09 07:05:00;;;;;;;9.10;5.47;;;2.10;69.80;;;;;;2327923;54;21851;-73
2022/12/09 07:07:28;;;;;;;11.38;5.60;;;2.10;69.00;;;;;;2327979;54;20919;-73
2022/12/09 07:09:55;;;;;;;9.52;4.47;;;2.10;68.90;;;;;;2327647;54;20983;-73
2022/12/09 07:12:22;;;;;;;10.40;4.87;;;2.10;68.80;;;;;;2572308;53;21002;-70
2022/12/09 07:14:48;;;;;;;9.73;5.15;;;2.20;68.90;;;;;;2328622;54;20895;-72
2022/12/09 07:17:15;;;;;;;10.85;5.32;;;2.20;68.80;;;;;;2328053;54;21034;-73
2022/12/09 07:19:45;;;;;;;10.55;5.60;;;2.20;68.90;;;;;;2327925;54;20923;-71
2022/12/09 07:22:12;;;;;;;10.77;5.20;;;2.20;68.90;;;;;;2572271;53;20958;-71
2022/12/09 07:25:15;;;;;;;11.43;5.35;;;2.20;68.90;;;;;;2572425;53;20943;-70
2022/12/09 07:27:41;;;;;;;12.37;5.97;;;2.20;68.70;;;;;;2311084;55;21963;-71
2022/12/09 07:30:09;;;;;;;14.13;6.40;;;2.20;68.80;;;;;;2345840;53;21101;-73
2022/12/09 07:32:50;;;;;;;16.08;7.53;;;2.20;69.00;;;;;;2543344;52;20922;-72
2022/12/09 07:35:17;;;;;;;17.73;8.80;;;2.20;68.90;;;;;;2328294;54;20982;-71
2022/12/09 07:37:48;;;;;;;18.87;10.02;;;2.20;69.10;;;;;;2482940;53;21928;-71
2022/12/09 07:40:14;;;;;;;15.55;8.77;;;2.30;69.30;;;;;;2570643;53;20912;-71
2022/12/09 07:42:44;;;;;;;16.62;9.13;;;2.30;69.40;;;;;;2328332;54;20919;-72
2022/12/09 07:45:11;;;;;;;19.12;9.10;;;2.30;69.40;;;;;;2327848;53;20943;-71
2022/12/09 07:47:38;;;;;;;20.77;9.68;;;2.30;69.50;;;;;;2572834;53;20891;-73
2022/12/09 07:50:06;;;;;;;14.80;8.18;;;2.40;69.70;;;;;;2327870;54;21936;-73
2022/12/09 07:52:33;;;;;;;17.95;8.30;;;2.40;69.80;;;;;;2328212;54;21189;-71
2022/12/09 07:55:00;;;;;;;16.30;8.02;;;2.40;69.70;;;;;;2575286;52;20980;-71
2022/12/09 07:57:57;;;;;;;15.73;7.70;;;2.50;69.80;;;;;;2332561;53;21002;-71
2022/12/09 08:00:26;;;;;;;12.48;6.25;;;2.50;69.70;;;;;;2572233;53;20907;-74
2022/12/09 08:02:54;;;;;;;11.80;6.72;;;2.50;69.70;;;;;;2571774;53;20927;-71
2022/12/09 08:05:27;;;;;;;12.65;5.78;;;2.50;69.70;;;;;;2328344;54;21623;-72
2022/12/09 08:07:55;;;;;;;13.50;6.62;;;2.60;69.80;;;;;;2571997;53;20903;-72
2022/12/09 08:10:30;;;;;;;15.52;6.53;;;2.60;69.70;;;;;;2407064;53;20911;-73
2022/12/09 08:12:57;;;;;;;11.68;6.28;;;2.60;69.70;;;;;;2327083;54;21013;-73
2022/12/09 08:15:24;;;;;;;10.85;6.10;;;2.60;69.80;;;;;;2572325;53;20939;-73
2022/12/09 08:17:50;;;;;;;14.63;7.30;;;2.60;69.60;;;;;;2460335;53;21030;-72
2022/12/09 08:20:18;;;;;;;13.77;6.60;;;2.70;70.10;;;;;;2415570;53;22011;-71
2022/12/09 08:22:46;;;;;;;10.07;5.37;;;2.70;69.90;;;;;;2440751;53;20946;-73
2022/12/09 08:25:13;;;;;;;12.07;5.80;;;2.80;70.00;;;;;;2572400;53;20955;-70
2022/12/09 08:27:58;;;;;;;12.02;6.47;;;2.80;70.00;;;;;;2572570;53;21042;-72
2022/12/09 08:30:25;;;;;;;13.73;6.40;;;2.80;69.80;;;;;;2509658;53;20955;-74
2022/12/09 08:33:37;;;;;;;16.37;6.87;;;2.80;69.90;;;;;;2328183;54;20923;-73
2022/12/09 08:36:35;;;;;;;13.82;5.65;;;2.90;69.70;;;;;;2546141;53;20940;-71
2022/12/09 08:39:04;;;;;;;13.00;5.85;;;2.90;69.60;;;;;;2327469;54;20939;-72
2022/12/09 08:41:46;;;;;;;12.98;6.43;;;2.90;69.60;;;;;;2392740;53;20955;-72
2022/12/09 08:44:18;;;;;;;11.65;5.72;;;2.90;69.50;;;;;;2327965;54;21504;-74
2022/12/09 08:46:59;;;;;;;15.30;7.03;;;2.90;69.60;;;;;;2504793;53;21985;-73
2022/12/09 08:49:26;;;;;;;13.17;6.10;;;3.00;69.60;;;;;;2328597;54;21122;-72
2022/12/09 08:51:53;;;;;;;12.50;6.12;;;2.90;70.30;;;;;;2328169;54;21964;-73
2022/12/09 08:54:21;;;;;;;13.00;6.43;;;3.00;69.70;;;;;;2328182;54;20919;-72
2022/12/09 08:56:49;;;;;;;10.05;5.15;;;3.00;69.70;;;;;;2515304;53;20975;-73
2022/12/09 08:59:16;;;;;;;14.30;6.45;;;3.00;69.80;;;;;;2328108;54;21034;-72
2022/12/09 09:01:43;;;;;;;14.75;6.62;;;3.00;70.00;;;;;;2573119;53;22075;-74
2022/12/09 09:04:11;;;;;;;14.23;6.07;;;3.00;69.90;;;;;;2327948;54;21031;-74
2022/12/09 09:06:48;;;;;;;17.15;7.22;;;3.10;70.00;;;;;;2572585;53;21589;-74
2022/12/09 09:09:14;;;;;;;13.90;6.68;;;3.10;69.90;;;;;;2328423;54;21933;-74
2022/12/09 09:11:41;;;;;;;16.58;7.32;;;3.20;70.00;;;;;;2426211;53;20899;-73
2022/12/09 09:14:09;;;;;;;13.75;6.82;;;3.10;69.90;;;;;;2328110;54;20973;-72
2022/12/09 09:16:39;;;;;;;12.82;6.05;;;3.20;70.00;;;;;;2574389;52;21139;-74
2022/12/09 09:19:06;;;;;;;14.70;7.05;;;3.20;70.00;;;;;;2330230;53;22259;-74
2022/12/09 09:22:10;;;;;;;14.25;6.20;;;3.20;70.00;;;;;;2348641;53;20939;-74
2022/12/09 09:24:37;;;;;;;13.45;6.03;;;3.30;70.00;;;;;;2383820;53;21864;-71
2022/12/09 09:27:05;;;;;;;12.63;5.95;;;3.30;70.10;;;;;;2439740;53;21006;-72
2022/12/09 09:29:32;;;;;;;15.18;7.15;;;3.30;70.10;;;;;;2327894;54;21065;-73
2022/12/09 09:32:26;;;;;;;18.00;8.25;;;3.30;70.20;;;;;;2328321;54;20926;-74
2022/12/09 09:34:52;;;;;;;15.48;7.20;;;3.40;70.20;;;;;;2458480;53;21058;-73
2022/12/09 09:37:19;;;;;;;15.73;6.85;;;3.50;70.40;;;;;;2517044;53;21896;-72
2022/12/09 09:39:46;;;;;;;13.60;6.22;;;3.50;70.40;;;;;;2327236;54;20996;-73
2022/12/09 09:42:18;;;;;;;14.15;6.82;;;3.50;70.40;;;;;;2312879;54;22000;-73
2022/12/09 09:44:49;;;;;;;14.45;6.18;;;3.60;70.50;;;;;;2328066;54;21573;-73
2022/12/09 09:47:25;;;;;;;16.00;8.07;;;3.60;70.50;;;;;;2523272;53;20923;-75
2022/12/09 09:50:21;;;;;;;16.12;7.40;;;3.60;70.50;;;;;;2326371;54;21001;-73
2022/12/09 09:52:49;;;;;;;12.90;6.15;;;3.60;70.40;;;;;;2572365;53;20982;-74
2022/12/09 09:55:26;;;;;;;13.18;7.03;;;3.70;70.50;;;;;;2328152;54;21404;-73
2022/12/09 10:01:00;;;;;;;11.38;6.10;;;3.70;70.50;;;;;;2327368;54;20981;-74
2022/12/09 10:03:41;;;;;;;10.88;5.57;;;3.80;69.90;;;;;;2331794;54;21014;-74
2022/12/09 10:06:34;;;;;;;12.45;6.53;;;3.90;70.40;;;;;;2575523;52;21445;-74
2022/12/09 10:09:55;;;;;;;14.23;6.40;;;3.90;70.40;;;;;;2327729;54;21050;-74
2022/12/09 10:12:35;;;;;;;11.70;5.93;;;3.90;70.00;;;;;;2572230;53;20927;-75
2022/12/09 10:15:12;;;;;;;11.30;5.72;;;4.00;70.50;;;;;;2406338;53;21030;-73
2022/12/09 10:17:53;;;;;;;18.87;8.43;;;4.00;70.50;;;;;;2573553;53;20914;-74
2022/12/09 10:20:23;;;;;;;16.52;6.65;;;4.00;70.50;;;;;;2572184;53;20903;-75
2022/12/09 10:22:59;;;;;;;15.07;7.15;;;4.10;70.80;;;;;;2464257;53;21433;-73
2022/12/09 10:25:28;;;;;;;13.65;7.00;;;4.10;70.70;;;;;;2327576;55;20986;-74
2022/12/09 10:28:38;;;;;;;15.57;7.07;;;4.10;70.60;;;;;;2357676;53;21298;-74
2022/12/09 10:31:05;;;;;;;16.45;7.25;;;4.20;70.60;;;;;;2328361;54;20919;-75
2022/12/09 10:33:34;;;;;;;12.77;6.07;;;4.20;70.50;;;;;;2328285;54;20970;-74
2022/12/09 10:36:04;;;;;;;14.68;6.87;;;4.20;70.50;;;;;;2328252;54;21311;-74
2022/12/09 10:38:34;;;;;;;12.30;6.62;;;4.20;70.40;;;;;;2327976;54;20978;-74
2022/12/09 10:44:24;;;;;;;16.30;7.57;;;4.30;70.40;;;;;;2328554;54;20943;-74
2022/12/09 10:47:23;;;;;;;19.40;9.45;;;4.40;70.70;;;;;;2537814;53;20959;-76
2022/12/09 10:49:50;;;;;;;15.35;7.53;;;4.40;70.70;;;;;;2572749;53;20904;-76
2022/12/09 10:52:25;;;;;;;15.30;7.60;;;4.40;70.80;;;;;;2328375;54;20970;-74
2022/12/09 10:54:52;;;;;;;14.55;7.72;;;4.50;70.90;;;;;;2571814;53;20942;-75
2022/12/09 10:57:24;;;;;;;14.32;6.75;;;4.50;70.90;;;;;;2328427;54;20962;-73
2022/12/09 11:04:11;;;;;;;12.35;6.30;;;4.60;70.80;;;;;;2328414;54;20904;-75
2022/12/09 11:06:39;;;;;;;11.95;5.97;;;4.70;70.90;;;;;;2439589;53;20971;-74
2022/12/09 11:09:05;;;;;;;12.45;6.87;;;4.70;70.80;;;;;;2332382;54;20915;-76
2022/12/09 11:11:47;;;;;;;13.93;6.65;;;4.70;70.60;;;;;;2392531;52;20955;-74
2022/12/09 11:14:27;;;;;;;12.40;7.43;;;4.80;70.50;;;;;;2517160;53;20986;-74
2022/12/09 11:16:56;;;;;;;12.05;6.87;;;4.80;70.40;;;;;;2470174;53;22031;-75
2022/12/09 11:19:35;;;;;;;15.25;7.55;;;4.80;70.50;;;;;;2572986;53;20990;-75
2022/12/09 11:34:40;;;;;;;12.60;6.95;;;4.80;70.30;;;;;;2572206;53;21077;-74
2022/12/09 11:37:09;;;;;;;12.82;5.50;;;4.90;69.60;;;;;;2307092;53;2354178;-74
2022/12/09 11:39:36;;;;;;;14.25;6.57;;;5.00;70.20;;;;;;2572269;53;21236;-74
2022/12/09 11:42:21;;;;;;;15.30;8.25;;;5.00;70.30;;;;;;2563121;53;20971;-74
2022/12/09 11:44:59;;;;;;;14.52;8.20;;;5.00;70.20;;;;;;2572261;53;20951;-75
2022/12/09 11:47:34;;;;;;;14.98;8.02;;;5.00;70.20;;;;;;2572305;53;20966;-75
2022/12/09 11:50:31;;;;;;;12.80;6.78;;;5.00;70.10;;;;;;2327682;54;20991;-74
2022/12/09 11:54:06;;;;;;;12.43;6.72;;;5.00;70.10;;;;;;2327718;54;22344;-75
2022/12/09 11:56:33;;;;;;;12.65;6.68;;;5.00;69.60;;;;;;2327589;54;20959;-74
2022/12/09 11:59:18;;;;;;;12.98;7.20;;;5.00;70.20;;;;;;2331375;54;20940;-74
2022/12/09 12:01:53;;;;;;;15.40;7.47;;;5.00;70.20;;;;;;2332137;52;20935;-73
2022/12/09 12:04:30;;;;;;;13.48;8.02;;;5.00;70.10;;;;;;2327052;54;21437;-74
2022/12/09 12:07:00;;;;;;;16.50;8.20;;;5.10;70.30;;;;;;2386286;53;21001;-74
2022/12/09 12:09:43;;;;;;;15.23;8.13;;;5.10;70.50;;;;;;2327018;54;22103;-74
2022/12/09 12:12:21;;;;;;;14.27;7.40;;;5.10;70.40;;;;;;2572135;53;21507;-75
2022/12/09 12:14:47;;;;;;;13.88;6.80;;;5.10;70.30;;;;;;2332100;54;20963;-75
2022/12/09 12:17:25;;;;;;;12.63;7.30;;;5.10;70.40;;;;;;2477095;53;21472;-75
2022/12/09 12:19:51;;;;;;;11.68;7.32;;;5.20;70.50;;;;;;2481912;53;20995;-75
2022/12/09 12:27:41;;;;;;;13.40;7.25;;;5.20;70.50;;;;;;2572399;53;20971;-74
2022/12/09 12:30:14;;;;;;;9.68;5.82;;;5.30;69.70;;;;;;2328372;54;20942;-75
2022/12/09 12:35:45;;;;;;;10.90;6.05;;;5.30;70.20;;;;;;2398775;53;22031;-75
2022/12/09 12:48:46;;;;;;;10.20;5.43;;;5.30;70.10;;;;;;2366461;53;21848;-74
2022/12/09 12:52:26;;;;;;;11.10;6.07;;;5.40;69.80;;;;;;2327859;54;20931;-73
2022/12/09 12:55:40;;;;;;;9.57;5.53;;;5.40;70.50;;;;;;2328438;54;20942;-75
2022/12/09 12:58:32;;;;;;;9.93;5.62;;;5.50;70.70;;;;;;2334164;53;20999;-74
2022/12/09 13:01:13;;;;;;;12.77;6.45;;;5.50;70.50;;;;;;2331245;53;21427;-74
2022/12/09 13:04:03;;;;;;;11.18;6.18;;;5.50;70.70;;;;;;2446630;53;21536;-74
2022/12/09 13:07:24;;;;;;;13.13;7.43;;;5.50;70.50;;;;;;2519558;53;20983;-75
2022/12/09 13:10:03;;;;;;;11.12;5.80;;;5.50;70.30;;;;;;2328001;54;21306;-73
2022/12/09 13:12:55;;;;;;;10.40;6.15;;;5.60;70.40;;;;;;2328328;54;20935;-75
2022/12/09 13:15:37;;;;;;;10.17;6.13;;;5.60;70.50;;;;;;2313180;55;21498;-74
2022/12/09 13:18:46;;;;;;;11.07;6.32;;;5.60;70.40;;;;;;2328474;54;21325;-74
2022/12/09 13:21:12;;;;;;;11.80;6.20;;;5.60;69.80;;;;;;2328117;54;21071;-73
2022/12/09 13:24:30;;;;;;;10.75;6.40;;;5.60;70.30;;;;;;2572440;53;22129;-74
2022/12/09 13:28:54;;;;;;;11.07;5.97;;;5.70;70.00;;;;;;2520926;53;21505;-75
2022/12/09 13:31:26;;;;;;;10.73;5.93;;;5.70;69.40;;;;;;2380323;53;20955;-75
2022/12/09 13:34:55;;;;;;;11.52;6.53;;;5.70;70.00;;;;;;2333505;54;21028;-74
2022/12/09 13:40:53;;;;;;;11.57;5.82;;;5.70;69.70;;;;;;2405049;53;21043;-75
2022/12/09 13:43:27;;;;;;;12.45;6.68;;;5.70;69.10;;;;;;2328181;54;21058;-75
2022/12/09 13:45:57;;;;;;;11.27;6.32;;;5.70;69.80;;;;;;2445714;54;20912;-73
2022/12/09 13:48:45;;;;;;;9.40;5.82;;;5.70;70.10;;;;;;2327792;54;20984;-75
2022/12/09 13:51:11;;;;;;;12.13;6.37;;;5.70;69.90;;;;;;2327854;54;20943;-75
2022/12/09 13:53:59;;;;;;;10.57;7.12;;;5.70;70.30;;;;;;2335104;53;21013;-74
2022/12/09 13:56:33;;;;;;;13.10;7.12;;;5.70;70.30;;;;;;2432668;53;20950;-75
2022/12/09 13:59:38;;;;;;;11.82;6.78;;;5.70;70.20;;;;;;2327117;54;21070;-73
2022/12/09 14:02:38;;;;;;;12.70;6.50;;;5.70;69.90;;;;;;2546314;53;20950;-73
2022/12/09 14:05:09;;;;;;;13.13;7.10;;;5.70;70.00;;;;;;2548977;53;20927;-75
2022/12/09 14:07:46;;;;;;;13.23;7.40;;;5.80;70.20;;;;;;2458026;53;21384;-74
2022/12/09 14:10:35;;;;;;;12.63;6.90;;;5.80;70.00;;;;;;2327836;54;21383;-73
2022/12/09 14:13:16;;;;;;;13.27;6.65;;;5.80;69.80;;;;;;2515220;53;20947;-73
2022/12/09 14:15:48;;;;;;;12.73;6.55;;;5.80;70.00;;;;;;2336668;53;21098;-74
2022/12/09 14:18:29;;;;;;;10.82;6.45;;;5.80;70.00;;;;;;2347725;53;20918;-74
2022/12/09 14:21:20;;;;;;;13.95;7.05;;;5.80;69.80;;;;;;2333441;53;21103;-73
2022/12/09 14:39:39;;;;;;;10.05;5.65;;;5.80;69.70;;;;;;2467904;52;21025;-75
2022/12/09 14:43:09;;;;;;;9.10;5.18;;;5.80;69.10;;;;;;2327092;54;21008;-72